Time;durP1;ratioP1;P1;durP2;ratioP2;P2;SDS_P1;SDS_P2;PMS_P1;PMS_P2;Temp;Humidity;BMP_temperature;BMP_pressure;BME280_temperature;BME280_humidity;BME280_pressure;Samples;Min_cycle;Max_cycle;Signal;HPM_P1;HPM_P2
2024/05/02 00:00:39;;;;;;;4.00;1.80;;;22.20;71.20;;;;;;6639654;43;113917;-74
2024/05/02 00:05:47;;;;;;;3.72;1.77;;;22.20;70.50;;;;;;6642505;43;116364;-74
2024/05/02 00:10:52;;;;;;;4.07;1.67;;;22.20;70.80;;;;;;6651511;43;117800;-77
2024/05/02 00:15:58;;;;;;;2.95;1.70;;;22.20;71.10;;;;;;6641212;43;112020;-79
2024/05/02 00:21:08;;;;;;;4.07;1.77;;;22.20;71.40;;;;;;6640402;43;110811;-77
2024/05/02 00:26:14;;;;;;;4.15;1.80;;;22.20;71.10;;;;;;6640801;43;111575;-77
2024/05/02 00:31:20;;;;;;;3.45;1.58;;;22.20;70.50;;;;;;6641879;43;110679;-77
2024/05/02 00:36:27;;;;;;;3.45;1.63;;;22.20;70.90;;;;;;6639715;43;110555;-77
2024/05/02 00:41:33;;;;;;;3.58;1.75;;;22.20;71.30;;;;;;6640598;43;111076;-74
2024/05/02 00:46:39;;;;;;;3.38;1.55;;;22.20;71.70;;;;;;6640833;43;110699;-79
2024/05/02 00:51:47;;;;;;;3.28;1.58;;;22.20;71.10;;;;;;6651006;43;112831;-76
2024/05/02 00:56:53;;;;;;;3.55;1.67;;;22.20;70.90;;;;;;6641067;43;110920;-75
2024/05/02 01:01:58;;;;;;;4.25;2.10;;;22.20;71.10;;;;;;6639283;43;110317;-79
2024/05/02 01:07:06;;;;;;;4.85;1.70;;;22.20;71.40;;;;;;6639418;43;110872;-78
2024/05/02 01:12:11;;;;;;;3.55;1.70;;;22.10;71.50;;;;;;6648793;43;112695;-78
2024/05/02 01:17:17;;;;;;;3.70;1.70;;;22.20;70.80;;;;;;6642631;43;110676;-78
2024/05/02 01:22:33;;;;;;;4.65;1.70;;;22.10;70.80;;;;;;6640085;43;113511;-73
2024/05/02 01:27:39;;;;;;;3.70;1.70;;;22.20;71.20;;;;;;6640114;43;114702;-77
2024/05/02 01:32:44;;;;;;;4.40;1.70;;;22.20;71.50;;;;;;6648491;43;116576;-71
2024/05/02 01:37:52;;;;;;;4.10;1.80;;;22.10;71.90;;;;;;6640999;43;114839;-78
2024/05/02 01:42:58;;;;;;;2.75;1.63;;;22.10;72.00;;;;;;6638650;43;115289;-73
2024/05/02 01:48:03;;;;;;;4.65;1.90;;;22.10;72.10;;;;;;6638890;43;115298;-78
2024/05/02 01:53:13;;;;;;;2.50;1.50;;;22.20;71.40;;;;;;6639134;43;115135;-77
2024/05/02 01:58:19;;;;;;;3.70;1.60;;;22.20;71.10;;;;;;6639208;43;114847;-78
2024/05/02 02:03:24;;;;;;;4.03;1.60;;;22.10;71.40;;;;;;6638026;43;110872;-75
2024/05/02 02:08:32;;;;;;;3.50;1.80;;;22.20;71.80;;;;;;6637786;43;110519;-74
2024/05/02 02:13:37;;;;;;;3.25;1.67;;;22.10;71.90;;;;;;6659628;42;110507;-71
2024/05/02 02:18:42;;;;;;;4.32;1.70;;;22.20;71.00;;;;;;6641103;43;110263;-75
2024/05/02 02:23:50;;;;;;;3.60;1.70;;;22.10;71.10;;;;;;6646854;43;112594;-78
2024/05/02 02:28:56;;;;;;;4.25;1.85;;;22.10;71.50;;;;;;6644650;43;111641;-77
2024/05/02 02:34:01;;;;;;;4.20;1.80;;;22.10;71.80;;;;;;6642679;43;110416;-75
2024/05/02 02:39:09;;;;;;;3.28;1.60;;;22.10;71.60;;;;;;6644436;43;111853;-78
2024/05/02 02:44:17;;;;;;;3.70;1.50;;;22.20;71.20;;;;;;6645785;43;112917;-78
2024/05/02 02:49:22;;;;;;;4.20;1.80;;;22.10;71.40;;;;;;6645058;43;112336;-78
2024/05/02 02:54:30;;;;;;;4.00;1.67;;;22.10;71.70;;;;;;6639723;43;110986;-78
2024/05/02 02:59:36;;;;;;;3.88;1.67;;;22.10;71.90;;;;;;6644203;43;112491;-75
2024/05/02 03:04:41;;;;;;;3.10;1.50;;;22.10;72.10;;;;;;6643390;43;110375;-74
2024/05/02 03:09:49;;;;;;;3.28;1.67;;;22.10;72.10;;;;;;6641517;43;115509;-75
2024/05/02 03:14:55;;;;;;;3.55;1.50;;;22.10;72.00;;;;;;6640874;43;115071;-78
2024/05/02 03:20:00;;;;;;;3.15;1.50;;;22.10;71.20;;;;;;6640472;43;113664;-79
2024/05/02 03:25:09;;;;;;;3.40;1.60;;;22.10;71.40;;;;;;6642415;43;114190;-75
2024/05/02 03:30:14;;;;;;;4.00;1.70;;;22.10;71.80;;;;;;6640607;43;114632;-74
2024/05/02 03:35:19;;;;;;;2.78;1.50;;;22.10;72.10;;;;;;6646464;43;115564;-71
2024/05/02 03:40:27;;;;;;;3.30;1.60;;;22.10;71.90;;;;;;6641508;43;115019;-73
2024/05/02 03:45:33;;;;;;;3.92;1.60;;;22.10;71.30;;;;;;6642236;43;115949;-71
2024/05/02 03:50:38;;;;;;;3.28;1.50;;;22.10;71.70;;;;;;6641698;43;115015;-70
2024/05/02 03:55:46;;;;;;;3.55;1.77;;;22.10;71.90;;;;;;6645586;43;112246;-71
2024/05/02 04:00:53;;;;;;;2.80;1.50;;;22.10;72.10;;;;;;6639870;43;110924;-72
2024/05/02 04:05:58;;;;;;;3.85;1.73;;;22.10;71.40;;;;;;6649249;43;112493;-70
2024/05/02 04:11:07;;;;;;;3.85;1.50;;;22.10;71.50;;;;;;6641653;43;110127;-71
2024/05/02 04:16:13;;;;;;;3.50;1.50;;;22.10;71.90;;;;;;6641033;43;110320;-72
2024/05/02 04:21:18;;;;;;;3.58;1.60;;;22.10;72.00;;;;;;6640135;43;110295;-72
2024/05/02 04:26:26;;;;;;;3.72;1.50;;;22.10;71.90;;;;;;6647917;43;113084;-72
2024/05/02 04:31:31;;;;;;;3.22;1.40;;;22.10;71.40;;;;;;6643948;43;111270;-71
2024/05/02 04:36:37;;;;;;;3.67;1.70;;;22.10;71.70;;;;;;6638473;43;110323;-72
2024/05/02 04:41:46;;;;;;;2.63;1.40;;;22.00;71.80;;;;;;6640163;43;111118;-73
2024/05/02 04:46:51;;;;;;;3.60;1.60;;;22.10;71.90;;;;;;6647462;43;112611;-72
2024/05/02 04:51:57;;;;;;;3.75;1.50;;;22.10;71.40;;;;;;6642595;43;110239;-72
2024/05/02 04:57:06;;;;;;;3.05;1.52;;;22.10;71.50;;;;;;6642440;43;114466;-76
2024/05/02 05:02:11;;;;;;;3.53;1.60;;;22.10;71.80;;;;;;6638987;43;114801;-73
2024/05/02 05:07:17;;;;;;;4.25;1.50;;;22.10;71.90;;;;;;6614941;43;115071;-71
2024/05/02 05:12:25;;;;;;;3.15;1.60;;;22.10;72.00;;;;;;6639552;43;115123;-71
2024/05/02 05:17:30;;;;;;;3.72;2.10;;;22.10;72.20;;;;;;6643459;43;114247;-71
2024/05/02 05:22:37;;;;;;;3.60;1.67;;;22.10;72.40;;;;;;6639601;43;114012;-72
2024/05/02 05:27:45;;;;;;;3.80;1.90;;;22.10;72.10;;;;;;6640191;43;115178;-72
2024/05/02 05:32:51;;;;;;;3.35;1.73;;;22.10;71.30;;;;;;6614318;43;114553;-76
2024/05/02 05:37:57;;;;;;;4.32;1.98;;;22.00;71.60;;;;;;6647475;43;117650;-74
2024/05/02 05:43:05;;;;;;;4.57;1.77;;;22.10;72.00;;;;;;6615152;43;110492;-77
2024/05/02 05:48:13;;;;;;;4.07;1.80;;;22.10;72.10;;;;;;6638242;43;111735;-73
2024/05/02 05:53:20;;;;;;;3.92;1.90;;;22.10;71.90;;;;;;6640088;43;111055;-73
2024/05/02 05:58:31;;;;;;;4.63;2.10;;;22.10;71.40;;;;;;6639900;43;110696;-76
2024/05/02 06:03:39;;;;;;;3.60;1.95;;;22.10;71.70;;;;;;6639213;43;110458;-74
2024/05/02 06:08:45;;;;;;;3.88;2.00;;;22.10;71.70;;;;;;6641654;43;110570;-72
2024/05/02 06:13:53;;;;;;;4.13;1.90;;;22.10;71.80;;;;;;6654064;43;110894;-71
2024/05/02 06:18:58;;;;;;;4.72;2.10;;;22.10;71.30;;;;;;6641349;43;110448;-70
2024/05/02 06:24:03;;;;;;;4.85;2.45;;;22.10;71.30;;;;;;6640362;43;110347;-71
2024/05/02 06:29:11;;;;;;;4.93;2.35;;;22.10;71.60;;;;;;6647248;43;112752;-72
2024/05/02 06:34:16;;;;;;;5.07;2.50;;;22.10;71.80;;;;;;6644287;43;111826;-72
2024/05/02 06:39:22;;;;;;;5.38;2.67;;;22.10;71.70;;;;;;6639001;43;110389;-71
2024/05/02 06:44:31;;;;;;;4.75;2.72;;;22.10;71.10;;;;;;6642238;43;110195;-74
2024/05/02 06:49:36;;;;;;;4.47;2.40;;;22.10;71.30;;;;;;6639113;43;113966;-74
2024/05/02 06:54:41;;;;;;;6.35;2.90;;;22.10;71.70;;;;;;6640990;43;115150;-72
2024/05/02 06:59:49;;;;;;;5.85;3.00;;;22.10;71.90;;;;;;6637643;43;114930;-71
2024/05/02 07:04:55;;;;;;;5.40;2.95;;;22.10;71.60;;;;;;6641568;43;114333;-72
2024/05/02 07:10:00;;;;;;;5.88;2.63;;;22.10;71.30;;;;;;6640015;43;114462;-75
2024/05/02 07:15:10;;;;;;;5.45;2.97;;;22.10;71.60;;;;;;6644806;43;115230;-71
2024/05/02 07:20:15;;;;;;;5.78;3.30;;;22.10;71.90;;;;;;6640762;43;114800;-73
2024/05/02 07:25:25;;;;;;;5.97;3.20;;;22.10;72.00;;;;;;6642847;43;116423;-71
2024/05/02 07:30:33;;;;;;;6.70;3.40;;;22.10;71.30;;;;;;6639113;43;110725;-71
2024/05/02 07:35:38;;;;;;;5.85;3.50;;;22.10;71.20;;;;;;6639023;43;112182;-75
2024/05/02 07:40:44;;;;;;;6.40;3.60;;;22.10;71.60;;;;;;6637397;43;110318;-74
2024/05/02 07:45:51;;;;;;;7.03;3.60;;;22.10;71.90;;;;;;6638186;43;110267;-74
2024/05/02 07:50:57;;;;;;;6.97;4.07;;;22.10;71.90;;;;;;6639943;43;111480;-74
2024/05/02 07:56:02;;;;;;;6.45;3.92;;;22.10;71.00;;;;;;6652256;43;110761;-74
2024/05/02 08:01:10;;;;;;;7.15;4.28;;;22.10;71.40;;;;;;6637807;43;110354;-77
2024/05/02 08:06:15;;;;;;;6.85;3.97;;;22.10;71.60;;;;;;6638271;43;110961;-79
2024/05/02 08:11:20;;;;;;;8.27;4.45;;;22.10;71.70;;;;;;6642240;43;111894;-76
2024/05/02 08:16:29;;;;;;;6.40;3.78;;;22.10;71.70;;;;;;6638105;43;111176;-77
2024/05/02 08:21:34;;;;;;;7.57;4.30;;;22.10;71.10;;;;;;6638945;43;111235;-72
2024/05/02 08:26:40;;;;;;;8.07;4.38;;;22.10;71.40;;;;;;6639584;43;110382;-79
2024/05/02 08:31:48;;;;;;;7.45;4.28;;;22.10;71.70;;;;;;6643470;43;110557;-75
2024/05/02 08:36:55;;;;;;;7.07;4.50;;;22.10;71.90;;;;;;6641624;43;115978;-77
2024/05/02 08:42:07;;;;;;;8.57;4.55;;;22.10;71.90;;;;;;6636809;43;114288;-72
2024/05/02 08:47:17;;;;;;;9.43;4.40;;;22.10;72.00;;;;;;6646639;43;113382;-77
2024/05/02 08:52:22;;;;;;;6.90;4.40;;;22.10;71.80;;;;;;6663079;43;114673;-77
2024/05/02 08:57:28;;;;;;;6.93;4.45;;;22.20;71.20;;;;;;6637353;43;114278;-76
2024/05/02 09:02:38;;;;;;;7.10;4.25;;;22.20;71.60;;;;;;6638077;43;115638;-74
2024/05/02 09:07:43;;;;;;;7.22;4.22;;;22.20;71.80;;;;;;6637838;43;115278;-79
2024/05/02 09:12:49;;;;;;;7.93;4.25;;;22.20;71.90;;;;;;6638702;43;115697;-77
2024/05/02 09:17:57;;;;;;;7.57;4.32;;;22.20;71.80;;;;;;6639004;43;115270;-72
2024/05/02 09:23:10;;;;;;;6.88;3.92;;;22.20;71.30;;;;;;6637558;43;111325;-75
2024/05/02 09:28:26;;;;;;;7.55;4.13;;;22.20;71.70;;;;;;6645227;43;111908;-78
2024/05/02 09:33:34;;;;;;;6.75;4.07;;;22.20;71.90;;;;;;6636603;43;110641;-76
2024/05/02 09:38:45;;;;;;;7.55;3.92;;;22.20;71.80;;;;;;6639451;43;110746;-72
2024/05/02 09:44:00;;;;;;;7.18;3.95;;;22.20;71.20;;;;;;6616163;43;110643;-73
2024/05/02 09:49:12;;;;;;;6.15;3.83;;;22.20;71.50;;;;;;6638927;43;110407;-76
2024/05/02 09:54:18;;;;;;;7.80;4.05;;;22.20;71.70;;;;;;6639765;43;110514;-80
2024/05/02 09:59:26;;;;;;;7.63;3.90;;;22.20;72.00;;;;;;6641277;43;110679;-73
2024/05/02 10:04:35;;;;;;;6.75;3.78;;;22.20;72.00;;;;;;6638684;43;110675;-81
2024/05/02 10:09:42;;;;;;;7.15;4.03;;;22.30;72.10;;;;;;6639902;43;111386;-77
2024/05/02 10:14:53;;;;;;;8.80;4.20;;;22.30;72.00;;;;;;6638683;43;110436;-78
2024/05/02 10:20:12;;;;;;;6.95;4.10;;;22.30;71.20;;;;;;6643084;43;112740;-75
2024/05/02 10:25:29;;;;;;;7.32;4.15;;;22.30;71.50;;;;;;6638820;43;113500;-77
2024/05/02 10:30:35;;;;;;;7.63;4.07;;;22.30;71.70;;;;;;6626116;43;116266;-77
2024/05/02 10:35:46;;;;;;;7.35;4.10;;;22.30;71.80;;;;;;6637157;43;114251;-76
2024/05/02 10:40:52;;;;;;;6.88;3.85;;;22.30;71.60;;;;;;6645857;43;113516;-73
2024/05/02 10:45:57;;;;;;;7.28;4.00;;;22.30;71.30;;;;;;6663049;43;113556;-76
2024/05/02 10:51:06;;;;;;;7.65;4.10;;;22.30;71.60;;;;;;6637731;43;114321;-75
2024/05/02 10:56:12;;;;;;;7.50;4.28;;;22.30;71.70;;;;;;6637703;43;113662;-79
2024/05/02 11:01:18;;;;;;;6.20;3.65;;;22.40;71.60;;;;;;6638403;43;115591;-76
2024/05/02 11:06:26;;;;;;;6.40;3.63;;;22.40;71.00;;;;;;6639617;43;115578;-78
2024/05/02 11:11:32;;;;;;;6.15;3.75;;;22.40;71.20;;;;;;6638354;43;110501;-76
2024/05/02 11:16:38;;;;;;;7.82;4.10;;;22.40;71.30;;;;;;6639601;43;111911;-76
2024/05/02 11:21:48;;;;;;;6.90;3.78;;;22.40;71.70;;;;;;6637817;43;110376;-77
2024/05/02 11:26:55;;;;;;;6.53;3.53;;;22.40;71.80;;;;;;6637561;43;110499;-78
2024/05/02 11:32:01;;;;;;;6.70;3.40;;;22.40;71.80;;;;;;6638449;43;110589;-76
2024/05/02 11:37:09;;;;;;;5.88;3.42;;;22.40;72.20;;;;;;6636483;43;110654;-69
2024/05/02 11:42:15;;;;;;;5.60;3.10;;;22.40;71.60;;;;;;6641384;43;111140;-70
2024/05/02 11:47:20;;;;;;;6.50;3.65;;;22.40;71.90;;;;;;6639368;43;111793;-70
2024/05/02 11:52:28;;;;;;;6.88;3.60;;;22.40;71.90;;;;;;6640168;43;111635;-76
2024/05/02 11:57:35;;;;;;;5.97;3.47;;;22.40;71.30;;;;;;6635251;43;110761;-76
2024/05/02 12:02:40;;;;;;;5.67;3.47;;;22.40;71.50;;;;;;6638440;43;111413;-74
2024/05/02 12:07:48;;;;;;;6.47;3.42;;;22.40;71.80;;;;;;6635910;43;110258;-71
2024/05/02 12:12:54;;;;;;;5.85;3.40;;;22.40;71.60;;;;;;6638182;43;111134;-70
2024/05/02 12:18:00;;;;;;;6.07;3.30;;;22.40;71.00;;;;;;6635711;43;114236;-70
2024/05/02 12:23:08;;;;;;;5.93;3.40;;;22.40;71.30;;;;;;6636635;43;115617;-74
2024/05/02 12:28:14;;;;;;;7.82;3.47;;;22.40;71.60;;;;;;6639052;43;115026;-77
2024/05/02 12:33:19;;;;;;;5.78;3.03;;;22.40;71.90;;;;;;6643058;43;116456;-74
2024/05/02 12:38:28;;;;;;;6.63;3.42;;;22.40;70.80;;;;;;6643559;43;115463;-74
2024/05/02 12:43:33;;;;;;;6.40;3.38;;;22.40;71.10;;;;;;6636262;43;115041;-76
2024/05/02 12:48:38;;;;;;;5.63;3.28;;;22.50;71.40;;;;;;6637647;43;115403;-74
2024/05/02 12:53:46;;;;;;;5.55;3.03;;;22.40;71.40;;;;;;6646689;43;116855;-76
2024/05/02 12:58:51;;;;;;;5.60;2.92;;;22.40;70.70;;;;;;6642449;43;112599;-74
2024/05/02 13:03:57;;;;;;;5.68;3.03;;;22.40;71.10;;;;;;6633537;43;110721;-75
2024/05/02 13:09:05;;;;;;;6.22;3.28;;;22.40;71.30;;;;;;6636104;43;110960;-79
2024/05/02 13:14:11;;;;;;;5.05;2.92;;;22.40;71.40;;;;;;6639500;43;110979;-74
2024/05/02 13:19:16;;;;;;;5.97;3.05;;;22.40;70.80;;;;;;6639951;43;111871;-73
2024/05/02 13:24:24;;;;;;;5.28;3.00;;;22.40;70.90;;;;;;6635348;43;111129;-75
2024/05/02 13:29:30;;;;;;;6.20;3.38;;;22.40;71.30;;;;;;6642366;43;112360;-78
2024/05/02 13:34:35;;;;;;;6.07;3.33;;;22.40;71.60;;;;;;6635270;43;110857;-75
2024/05/02 13:39:43;;;;;;;5.90;3.35;;;22.40;71.80;;;;;;6640852;43;111156;-77
2024/05/02 13:44:49;;;;;;;5.97;3.00;;;22.40;71.80;;;;;;6635847;43;110236;-77
2024/05/02 13:49:54;;;;;;;5.53;2.85;;;22.40;71.40;;;;;;6640116;43;112065;-77
2024/05/02 13:55:02;;;;;;;6.38;2.83;;;22.40;71.20;;;;;;6634107;43;110439;-77
2024/05/02 14:00:10;;;;;;;6.40;2.90;;;22.40;72.00;;;;;;6636077;43;110302;-75
2024/05/02 14:05:24;;;;;;;4.82;2.42;;;22.40;71.70;;;;;;6634704;43;114461;-77
2024/05/02 14:10:32;;;;;;;5.53;2.75;;;22.40;71.20;;;;;;6636620;43;114667;-73
2024/05/02 14:15:37;;;;;;;6.07;2.60;;;22.40;71.00;;;;;;6637686;43;114501;-73
2024/05/02 14:20:42;;;;;;;4.97;2.53;;;22.40;71.40;;;;;;6640058;43;115051;-77
2024/05/02 14:25:50;;;;;;;4.70;2.40;;;22.40;71.60;;;;;;6637044;43;114634;-74
2024/05/02 14:30:56;;;;;;;5.57;2.28;;;22.40;71.30;;;;;;6636937;43;114290;-71
2024/05/02 14:36:01;;;;;;;6.38;2.67;;;22.40;70.90;;;;;;6613647;43;114068;-73
2024/05/02 14:41:09;;;;;;;4.97;2.55;;;22.40;71.10;;;;;;6656551;42;115023;-72
2024/05/02 14:46:14;;;;;;;5.55;2.70;;;22.40;71.60;;;;;;6642719;43;116366;-78
2024/05/02 14:51:20;;;;;;;4.65;2.30;;;22.40;71.60;;;;;;6637259;43;110222;-74
2024/05/02 14:56:27;;;;;;;4.57;2.30;;;22.40;71.20;;;;;;6638954;43;110571;-77
2024/05/02 15:01:33;;;;;;;4.40;2.40;;;22.40;70.90;;;;;;6636203;43;110247;-75
2024/05/02 15:06:39;;;;;;;4.38;2.25;;;22.40;71.10;;;;;;6638136;43;110614;-77
2024/05/02 15:11:47;;;;;;;4.63;2.30;;;22.40;71.40;;;;;;6637158;43;110891;-74
2024/05/02 15:16:52;;;;;;;4.07;2.25;;;22.30;71.50;;;;;;6635451;43;110972;-73
2024/05/02 15:21:58;;;;;;;5.32;2.17;;;22.30;71.70;;;;;;6637075;43;111168;-76
2024/05/02 15:27:07;;;;;;;4.45;2.20;;;22.30;71.70;;;;;;6657969;42;110101;-73
2024/05/02 15:32:12;;;;;;;4.30;2.10;;;22.40;71.60;;;;;;6636191;43;110390;-77
2024/05/02 15:37:17;;;;;;;4.35;2.20;;;22.40;71.10;;;;;;6635543;43;110285;-78
2024/05/02 15:42:25;;;;;;;4.40;2.10;;;22.30;71.40;;;;;;6637760;43;110910;-74
2024/05/02 15:47:31;;;;;;;4.03;2.10;;;22.30;71.60;;;;;;6646184;43;112775;-73
2024/05/02 15:52:38;;;;;;;3.30;1.80;;;22.30;71.60;;;;;;6641349;43;114654;-76
2024/05/02 15:57:45;;;;;;;4.10;2.00;;;22.30;71.30;;;;;;6635529;43;114188;-75
2024/05/02 16:02:51;;;;;;;4.13;2.00;;;22.30;71.00;;;;;;6637664;43;114255;-75
2024/05/02 16:07:56;;;;;;;3.78;1.90;;;22.30;71.40;;;;;;6644674;43;116270;-75
2024/05/02 16:13:05;;;;;;;4.72;2.00;;;22.30;71.50;;;;;;6638797;43;114323;-76
2024/05/02 16:18:10;;;;;;;3.65;2.00;;;22.30;71.40;;;;;;6635096;43;115343;-77
2024/05/02 16:23:16;;;;;;;4.28;2.10;;;22.30;70.90;;;;;;6636131;43;115287;-77
2024/05/02 16:28:24;;;;;;;3.72;1.85;;;22.30;71.20;;;;;;6637242;43;114304;-74
2024/05/02 16:33:29;;;;;;;3.70;2.00;;;22.30;71.30;;;;;;6636282;43;115130;-75
2024/05/02 16:38:35;;;;;;;3.55;2.00;;;22.30;71.30;;;;;;6636575;43;111082;-75
2024/05/02 16:43:42;;;;;;;3.35;1.83;;;22.30;71.40;;;;;;6654603;43;110078;-73
2024/05/02 16:48:48;;;;;;;5.72;2.20;;;22.30;71.10;;;;;;6634995;43;110270;-78
2024/05/02 16:53:53;;;;;;;4.28;2.13;;;22.20;71.20;;;;;;6637136;43;110908;-75
2024/05/02 16:59:01;;;;;;;3.20;1.83;;;22.30;71.40;;;;;;6643750;43;113399;-72
2024/05/02 17:04:07;;;;;;;3.60;1.73;;;22.30;71.50;;;;;;6641966;43;112863;-77
2024/05/02 17:09:12;;;;;;;3.90;1.80;;;22.30;71.50;;;;;;6634882;43;110873;-76
2024/05/02 17:14:20;;;;;;;4.15;1.90;;;22.30;71.80;;;;;;6644157;43;112820;-75
2024/05/02 17:19:25;;;;;;;3.50;1.85;;;22.30;71.70;;;;;;6645442;43;111172;-76
2024/05/02 17:24:32;;;;;;;3.95;1.90;;;22.30;71.70;;;;;;6610659;43;110728;-76
2024/05/02 17:29:40;;;;;;;3.30;1.67;;;22.30;71.70;;;;;;6663184;43;110793;-76
2024/05/02 17:34:45;;;;;;;4.22;1.85;;;22.30;71.60;;;;;;6655470;43;110556;-74
2024/05/02 17:39:51;;;;;;;3.78;1.90;;;22.30;71.60;;;;;;6635768;43;110379;-75
2024/05/02 17:44:59;;;;;;;4.22;1.80;;;22.20;71.60;;;;;;6633181;43;114526;-74
2024/05/02 17:50:09;;;;;;;3.95;1.60;;;22.30;71.70;;;;;;6635875;43;114732;-73
2024/05/02 17:55:14;;;;;;;3.20;1.60;;;22.30;71.70;;;;;;6634419;43;113536;-76
2024/05/02 18:00:22;;;;;;;5.28;1.90;;;22.20;71.40;;;;;;6637002;43;114176;-75
2024/05/02 18:05:28;;;;;;;3.33;1.58;;;22.20;71.40;;;;;;6636519;43;115063;-72
2024/05/02 18:10:33;;;;;;;3.95;1.67;;;22.20;71.60;;;;;;6636257;43;115421;-72
2024/05/02 18:15:41;;;;;;;4.05;1.77;;;22.20;71.30;;;;;;6636498;43;113494;-75
2024/05/02 18:20:46;;;;;;;4.15;1.75;;;22.20;71.30;;;;;;6636902;43;114261;-73
2024/05/02 18:25:51;;;;;;;3.17;1.60;;;22.20;71.20;;;;;;6645309;43;112864;-73
2024/05/02 18:30:59;;;;;;;4.05;1.60;;;22.20;71.30;;;;;;6636878;43;110612;-70
2024/05/02 18:36:05;;;;;;;3.72;1.60;;;22.20;71.40;;;;;;6635001;43;110506;-69
2024/05/02 18:41:11;;;;;;;3.60;1.73;;;22.20;71.10;;;;;;6635425;43;110673;-75
2024/05/02 18:46:19;;;;;;;3.63;1.40;;;22.20;71.10;;;;;;6641253;43;112356;-75
2024/05/02 18:51:25;;;;;;;3.60;1.60;;;22.20;71.20;;;;;;6635332;43;110859;-73
2024/05/02 18:56:30;;;;;;;4.38;1.60;;;22.20;71.20;;;;;;6632505;43;110485;-74
2024/05/02 19:01:38;;;;;;;3.45;1.55;;;22.20;71.30;;;;;;6634081;43;110316;-77
2024/05/02 19:06:43;;;;;;;3.15;1.48;;;22.20;71.10;;;;;;6644397;43;112837;-77
2024/05/02 19:11:49;;;;;;;3.78;1.40;;;22.20;71.00;;;;;;6634570;43;110345;-75
2024/05/02 19:16:57;;;;;;;2.95;1.48;;;22.20;71.10;;;;;;6633099;43;110808;-76
2024/05/02 19:22:02;;;;;;;3.63;1.38;;;22.10;71.10;;;;;;6634521;43;110646;-73
2024/05/02 19:27:07;;;;;;;2.97;1.50;;;22.10;71.10;;;;;;6635929;43;110775;-76
2024/05/02 19:32:15;;;;;;;3.13;1.35;;;22.10;70.90;;;;;;6637349;43;113040;-73
2024/05/02 19:37:21;;;;;;;3.65;1.42;;;22.20;71.10;;;;;;6639811;43;114291;-71
2024/05/02 19:42:27;;;;;;;3.38;1.60;;;22.10;71.00;;;;;;6637190;43;115425;-72
2024/05/02 19:47:34;;;;;;;3.35;1.40;;;22.10;71.20;;;;;;6639145;43;113689;-78
2024/05/02 19:52:40;;;;;;;3.65;1.50;;;22.10;71.00;;;;;;6634969;43;114997;-75
2024/05/02 19:57:45;;;;;;;4.15;1.52;;;22.10;70.90;;;;;;6634454;43;115166;-76
2024/05/02 20:02:53;;;;;;;3.25;1.40;;;22.10;71.00;;;;;;6640554;43;116367;-75
2024/05/02 20:07:59;;;;;;;2.92;1.33;;;22.10;71.00;;;;;;6636512;43;115104;-75
2024/05/02 20:13:05;;;;;;;4.63;1.40;;;22.10;71.20;;;;;;6638438;43;117575;-74
2024/05/02 20:18:13;;;;;;;3.22;1.50;;;22.10;71.10;;;;;;6635478;43;110278;-75
2024/05/02 20:23:19;;;;;;;3.88;1.40;;;22.10;70.90;;;;;;6640669;43;112342;-78
2024/05/02 20:28:24;;;;;;;5.45;1.45;;;22.10;71.10;;;;;;6640017;43;110348;-76
2024/05/02 20:33:32;;;;;;;3.13;1.40;;;22.10;71.10;;;;;;6638802;43;110985;-77
2024/05/02 20:38:38;;;;;;;3.70;1.40;;;22.10;71.20;;;;;;6670420;43;110537;-76
2024/05/02 20:43:43;;;;;;;2.78;1.25;;;22.10;71.30;;;;;;6676071;43;110336;-72
2024/05/02 20:48:51;;;;;;;3.00;1.30;;;22.10;71.50;;;;;;6679781;43;110599;-75
2024/05/02 20:53:56;;;;;;;3.47;1.30;;;22.10;71.50;;;;;;6639099;43;110435;-70
2024/05/02 20:59:02;;;;;;;3.10;1.30;;;22.10;71.30;;;;;;6642609;43;112340;-73
2024/05/02 21:04:10;;;;;;;2.58;1.30;;;22.10;71.30;;;;;;6635436;43;110250;-70
2024/05/02 21:09:15;;;;;;;2.55;1.25;;;22.10;71.30;;;;;;6645575;43;112431;-71
2024/05/02 21:14:21;;;;;;;3.90;1.30;;;22.00;71.40;;;;;;6638308;43;110366;-70
2024/05/02 21:19:29;;;;;;;3.03;1.38;;;22.00;71.30;;;;;;6636575;43;115276;-71
2024/05/02 21:24:34;;;;;;;2.72;1.35;;;22.00;71.10;;;;;;6637842;43;114370;-76
2024/05/02 21:29:39;;;;;;;2.70;1.20;;;22.10;71.20;;;;;;6638473;43;114180;-70
2024/05/02 21:34:47;;;;;;;3.85;1.40;;;22.10;71.20;;;;;;6639352;43;115096;-70
2024/05/02 21:39:53;;;;;;;3.33;1.25;;;22.00;71.30;;;;;;6648607;43;116418;-71
2024/05/02 21:44:58;;;;;;;3.35;1.30;;;22.00;71.40;;;;;;6638609;43;115258;-72
2024/05/02 21:50:07;;;;;;;2.65;1.15;;;22.00;71.60;;;;;;6637289;43;113962;-71
2024/05/02 21:55:12;;;;;;;2.63;1.20;;;22.00;71.60;;;;;;6638672;43;115084;-71
2024/05/02 22:00:18;;;;;;;3.38;1.20;;;22.00;71.20;;;;;;6646509;43;113598;-71
2024/05/02 22:05:26;;;;;;;1.98;1.10;;;22.00;71.20;;;;;;6638429;43;110405;-71
2024/05/02 22:10:31;;;;;;;3.28;1.30;;;22.00;71.30;;;;;;6637230;43;110954;-73
2024/05/02 22:15:36;;;;;;;3.28;1.27;;;22.00;71.40;;;;;;6637234;43;111115;-72
2024/05/02 22:20:44;;;;;;;4.00;1.30;;;22.00;71.30;;;;;;6641538;43;112377;-71
2024/05/02 22:25:49;;;;;;;3.05;1.20;;;22.00;71.20;;;;;;6647296;43;112766;-72
2024/05/02 22:30:55;;;;;;;2.95;1.20;;;22.00;71.20;;;;;;6637706;43;110970;-71
2024/05/02 22:36:03;;;;;;;2.90;1.25;;;22.00;71.30;;;;;;6636785;43;110195;-72
2024/05/02 22:41:08;;;;;;;4.03;1.17;;;22.00;71.30;;;;;;6640484;43;110407;-71
2024/05/02 22:46:13;;;;;;;3.08;1.20;;;22.00;71.10;;;;;;6637470;43;110932;-72
2024/05/02 22:51:21;;;;;;;2.60;1.17;;;22.00;71.10;;;;;;6647511;43;112537;-72
2024/05/02 22:56:26;;;;;;;3.00;1.20;;;22.00;71.30;;;;;;6644520;43;112645;-70
2024/05/02 23:01:32;;;;;;;4.22;1.17;;;21.90;71.20;;;;;;6642093;43;110727;-71
2024/05/02 23:06:40;;;;;;;3.10;1.30;;;21.90;71.10;;;;;;6644795;43;110612;-72
2024/05/02 23:11:45;;;;;;;3.05;1.27;;;21.90;71.10;;;;;;6645248;43;114720;-73
2024/05/02 23:16:50;;;;;;;2.95;1.20;;;21.90;71.10;;;;;;6642408;43;114143;-71
2024/05/02 23:21:59;;;;;;;2.67;1.17;;;21.90;71.90;;;;;;6637126;43;114233;-71
2024/05/02 23:27:04;;;;;;;3.75;1.13;;;21.90;71.20;;;;;;6642267;43;114628;-73
2024/05/02 23:32:10;;;;;;;3.80;1.30;;;21.90;71.40;;;;;;6637987;43;115265;-71
2024/05/02 23:37:18;;;;;;;2.90;1.23;;;21.90;71.40;;;;;;6636863;43;114660;-72
2024/05/02 23:42:23;;;;;;;3.08;1.20;;;21.90;71.10;;;;;;6642601;43;115177;-71
2024/05/02 23:47:28;;;;;;;2.90;1.10;;;21.90;71.00;;;;;;6638900;43;115157;-72
2024/05/02 23:52:36;;;;;;;3.28;1.30;;;21.90;71.20;;;;;;6637749;43;112012;-72
2024/05/02 23:57:41;;;;;;;2.83;1.17;;;21.90;71.20;;;;;;6638911;43;111072;-72
